Terminal Aerodrome Forecast
Issued by NWS Duluth, MN

Home | Current Version | Previous Version | Text Only | Print | Product List | Glossary On
Versions: 1 2 3 4 5 6 7 8 9 10 11 12 13 14 15
088
FTUS43 KDLH 261134
TAFDLH
TAF
KDLH 261134Z 2612/2712 25010KT P6SM SCT120
     FM261400 32013G20KT P6SM -RA SCT010 BKN050
     FM261700 34015G24KT P6SM SCT020 BKN040
     FM262200 34013G18KT P6SM SCT040
     FM270100 33010KT P6SM SCT040
     FM270900 21004KT P6SM VCSH BKN040=

USA.gov is the U.S. government's official web portal to all federal, state and local government web resources and services.